Time;durP1;ratioP1;P1;durP2;ratioP2;P2;SDS_P1;SDS_P2;PMS_P1;PMS_P2;Temp;Humidity;BMP_temperature;BMP_pressure;BME280_temperature;BME280_humidity;BME280_pressure;Samples;Min_cycle;Max_cycle;Signal;HPM_P1;HPM_P2
2023/01/24 00:00:33;;;;;;;19.97;14.77;;;4.00;99.90;;;;;;4947540;28;21843;-73
2023/01/24 00:03:01;;;;;;;20.20;13.50;;;4.00;99.90;;;;;;4956304;28;20530;-73
2023/01/24 00:05:29;;;;;;;21.60;14.37;;;4.00;99.90;;;;;;4947087;28;20971;-73
2023/01/24 00:08:02;;;;;;;18.10;13.63;;;3.90;99.90;;;;;;4953176;28;20513;-73
2023/01/24 00:10:34;;;;;;;22.00;15.40;;;3.90;99.90;;;;;;4950944;28;20478;-73
2023/01/24 00:13:07;;;;;;;19.33;14.83;;;3.90;99.90;;;;;;4947149;28;20491;-73
2023/01/24 00:15:40;;;;;;;18.00;13.60;;;3.90;99.90;;;;;;4946968;28;20474;-73
2023/01/24 00:18:12;;;;;;;17.00;13.23;;;3.90;99.90;;;;;;4949216;28;20526;-73
2023/01/24 00:20:41;;;;;;;19.43;14.30;;;3.90;99.90;;;;;;4948872;28;20506;-73
2023/01/24 00:23:14;;;;;;;19.97;13.50;;;3.90;99.90;;;;;;4948365;28;20489;-73
2023/01/24 00:25:43;;;;;;;20.63;14.00;;;3.90;99.90;;;;;;4943920;28;20482;-74
2023/01/24 00:28:13;;;;;;;20.03;14.03;;;3.90;99.90;;;;;;4944352;28;20529;-73
2023/01/24 00:30:49;;;;;;;18.43;13.23;;;3.90;99.90;;;;;;4965539;28;20498;-73
2023/01/24 00:33:17;;;;;;;24.87;15.00;;;3.90;99.90;;;;;;4963041;28;20467;-73
2023/01/24 00:35:45;;;;;;;22.00;13.93;;;3.90;99.90;;;;;;4969753;28;20463;-73
2023/01/24 00:38:15;;;;;;;20.50;14.30;;;3.90;99.90;;;;;;4959788;28;20478;-73
2023/01/24 00:40:45;;;;;;;20.20;13.50;;;3.80;99.90;;;;;;4950691;28;20501;-73
2023/01/24 00:43:13;;;;;;;19.40;13.70;;;3.80;99.90;;;;;;4943725;28;20487;-73
2023/01/24 00:45:45;;;;;;;19.00;12.77;;;3.80;99.90;;;;;;4942833;28;20522;-73
2023/01/24 00:48:13;;;;;;;20.37;14.23;;;3.80;99.90;;;;;;4959541;28;20485;-73
2023/01/24 00:50:43;;;;;;;21.27;13.90;;;3.80;99.90;;;;;;4945550;28;20974;-73
2023/01/24 00:53:22;;;;;;;21.20;14.10;;;3.80;99.90;;;;;;4943596;28;20486;-73
2023/01/24 00:55:58;;;;;;;17.23;13.00;;;3.80;99.90;;;;;;4951597;28;20474;-73
2023/01/24 00:58:37;;;;;;;20.87;13.90;;;3.80;99.90;;;;;;4943562;28;20478;-73
2023/01/24 01:01:06;;;;;;;19.90;13.93;;;3.80;99.90;;;;;;4954518;28;20522;-73
2023/01/24 01:03:36;;;;;;;18.40;13.10;;;3.80;99.90;;;;;;4946930;28;20490;-73
2023/01/24 01:06:09;;;;;;;19.13;13.67;;;3.80;99.90;;;;;;4947732;28;20505;-73
2023/01/24 01:08:38;;;;;;;19.80;13.63;;;3.80;99.90;;;;;;4949056;28;20470;-73
2023/01/24 01:11:07;;;;;;;21.10;12.57;;;3.80;99.90;;;;;;4951736;28;20495;-73
2023/01/24 01:13:37;;;;;;;15.93;12.07;;;3.80;99.90;;;;;;4945993;28;20546;-73
2023/01/24 01:16:10;;;;;;;17.53;12.67;;;3.80;99.90;;;;;;4942723;28;20475;-73
2023/01/24 01:18:41;;;;;;;20.03;12.13;;;3.80;99.90;;;;;;4947523;28;20478;-73
2023/01/24 01:21:15;;;;;;;18.10;12.43;;;3.80;99.90;;;;;;4952559;28;21002;-73
2023/01/24 01:23:47;;;;;;;19.60;13.00;;;3.80;99.90;;;;;;4949275;28;20549;-73
2023/01/24 01:26:23;;;;;;;20.20;13.13;;;3.90;99.90;;;;;;4949421;28;20502;-73
2023/01/24 01:28:52;;;;;;;16.30;12.60;;;3.80;99.90;;;;;;4944563;28;20478;-73
2023/01/24 01:31:23;;;;;;;18.30;13.20;;;3.90;99.90;;;;;;4946390;28;20490;-73
2023/01/24 01:33:54;;;;;;;17.80;12.70;;;3.90;99.90;;;;;;4949655;28;20986;-73
2023/01/24 01:36:25;;;;;;;19.87;13.30;;;3.80;99.90;;;;;;4952826;28;20467;-73
2023/01/24 01:38:53;;;;;;;15.17;11.70;;;3.80;99.90;;;;;;4946176;28;20975;-73
2023/01/24 01:41:25;;;;;;;19.77;13.17;;;3.80;99.90;;;;;;4944915;28;20501;-73
2023/01/24 01:46:43;;;;;;;17.00;12.23;;;3.80;99.90;;;;;;4943706;28;20471;-73
2023/01/24 01:49:23;;;;;;;21.07;13.43;;;3.80;99.90;;;;;;4949535;28;20459;-73
2023/01/24 01:51:55;;;;;;;16.93;12.23;;;3.80;99.90;;;;;;4934442;28;20494;-73
2023/01/24 01:54:31;;;;;;;17.33;12.60;;;3.80;99.90;;;;;;4946655;29;20507;-73
2023/01/24 01:57:07;;;;;;;15.30;11.60;;;3.80;99.90;;;;;;4949586;28;20477;-73
2023/01/24 01:59:44;;;;;;;16.10;12.13;;;3.80;99.90;;;;;;4945315;29;20546;-73
2023/01/24 02:02:19;;;;;;;19.37;12.70;;;3.80;99.90;;;;;;4934189;28;20494;-73
2023/01/24 02:04:55;;;;;;;17.83;12.83;;;3.80;99.90;;;;;;4941652;29;21019;-73
2023/01/24 02:07:30;;;;;;;15.03;12.20;;;3.90;99.90;;;;;;4952146;28;20474;-73
2023/01/24 02:10:00;;;;;;;19.33;12.87;;;3.90;99.90;;;;;;4947702;29;20470;-73
2023/01/24 02:12:43;;;;;;;17.23;12.43;;;3.80;99.90;;;;;;4943330;28;20514;-73
2023/01/24 02:18:05;;;;;;;17.70;12.37;;;3.80;99.90;;;;;;4948741;28;20474;-73
2023/01/24 02:20:42;;;;;;;17.70;12.53;;;3.80;99.90;;;;;;4952045;28;20471;-73
2023/01/24 02:23:32;;;;;;;16.93;12.20;;;3.80;99.90;;;;;;4949619;28;20483;-73
2023/01/24 02:26:11;;;;;;;16.57;11.47;;;3.80;99.90;;;;;;4948294;28;20529;-73
2023/01/24 02:28:44;;;;;;;19.70;12.93;;;3.80;99.90;;;;;;4939082;28;20493;-73
2023/01/24 02:31:14;;;;;;;16.50;11.80;;;3.80;99.90;;;;;;4942418;28;20518;-73
2023/01/24 02:33:43;;;;;;;16.03;11.90;;;3.80;99.90;;;;;;4946318;28;20475;-73
2023/01/24 02:36:25;;;;;;;19.57;12.77;;;3.80;99.90;;;;;;4942208;28;20487;-73
2023/01/24 02:38:58;;;;;;;19.30;12.53;;;3.80;99.90;;;;;;4936636;28;20525;-73
2023/01/24 02:41:37;;;;;;;18.07;13.13;;;3.70;99.90;;;;;;4941669;28;20967;-74
2023/01/24 02:44:15;;;;;;;16.93;11.73;;;3.70;99.90;;;;;;4940380;28;20498;-73
2023/01/24 02:46:45;;;;;;;16.07;12.10;;;3.70;99.90;;;;;;4943459;28;21342;-73
2023/01/24 02:49:15;;;;;;;18.23;12.10;;;3.80;99.90;;;;;;4949375;28;20474;-73
2023/01/24 02:54:34;;;;;;;17.50;12.53;;;3.80;99.90;;;;;;4946584;28;20470;-73
2023/01/24 02:59:57;;;;;;;19.57;13.87;;;3.70;99.90;;;;;;4946404;28;20682;-73
2023/01/24 03:02:28;;;;;;;16.57;11.77;;;3.70;99.90;;;;;;4942030;28;20876;-72
2023/01/24 03:04:59;;;;;;;15.50;12.07;;;3.70;99.90;;;;;;4949292;28;20590;-72
2023/01/24 03:07:41;;;;;;;16.83;12.07;;;3.70;99.90;;;;;;4950450;28;20514;-72
2023/01/24 03:10:14;;;;;;;20.90;12.80;;;3.70;99.90;;;;;;4947627;29;20474;-72
2023/01/24 03:35:17;;;;;;;16.70;12.50;;;3.70;99.90;;;;;;4951495;28;20470;-73
2023/01/24 03:40:34;;;;;;;17.30;11.70;;;3.70;99.90;;;;;;4942268;28;20485;-72
2023/01/24 03:43:04;;;;;;;17.33;11.67;;;3.70;99.90;;;;;;4946704;28;20573;-72
2023/01/24 03:45:36;;;;;;;18.77;13.10;;;3.70;99.90;;;;;;4943749;28;20501;-73
2023/01/24 03:48:12;;;;;;;16.33;12.27;;;3.70;99.90;;;;;;4945687;28;20538;-72
2023/01/24 03:53:25;;;;;;;18.53;12.17;;;3.60;99.90;;;;;;4984595;28;20568;-80
2023/01/24 03:56:01;;;;;;;15.80;11.40;;;3.70;99.90;;;;;;4990911;28;20525;-81
2023/01/24 03:58:32;;;;;;;16.60;12.17;;;3.60;99.90;;;;;;4990158;28;20540;-82
2023/01/24 04:01:04;;;;;;;16.90;11.43;;;3.60;99.90;;;;;;4982501;28;20519;-80
2023/01/24 04:03:48;;;;;;;17.67;12.40;;;3.60;99.90;;;;;;4973478;29;20570;-80
2023/01/24 04:06:18;;;;;;;17.63;11.60;;;3.60;99.90;;;;;;4975568;29;20479;-82
2023/01/24 04:08:46;;;;;;;18.80;12.17;;;3.60;99.90;;;;;;4972040;28;20451;-84
2023/01/24 04:11:16;;;;;;;18.67;12.83;;;3.60;99.90;;;;;;4972077;28;20491;-83
2023/01/24 04:13:44;;;;;;;19.63;13.10;;;3.60;99.90;;;;;;4974199;28;20450;-84
2023/01/24 04:16:14;;;;;;;19.30;12.23;;;3.60;99.90;;;;;;4970802;28;20533;-81
2023/01/24 04:18:46;;;;;;;17.20;11.60;;;3.60;99.90;;;;;;4965324;28;20538;-81
2023/01/24 04:21:17;;;;;;;17.70;11.90;;;3.70;99.90;;;;;;4970776;28;20462;-80
2023/01/24 04:23:47;;;;;;;17.70;12.30;;;3.70;99.90;;;;;;4971259;28;20486;-80
2023/01/24 04:26:20;;;;;;;17.17;11.90;;;3.70;99.90;;;;;;4970368;28;20450;-83
2023/01/24 04:28:55;;;;;;;16.10;12.70;;;3.70;99.90;;;;;;4968666;29;20472;-83
2023/01/24 04:31:28;;;;;;;16.37;12.10;;;3.70;99.90;;;;;;4968707;28;20510;-80
2023/01/24 04:33:59;;;;;;;17.50;12.27;;;3.70;99.90;;;;;;4974076;29;20497;-82
2023/01/24 04:36:34;;;;;;;17.13;12.40;;;3.70;99.90;;;;;;4975956;29;20474;-79
2023/01/24 04:39:03;;;;;;;20.60;12.37;;;3.70;99.90;;;;;;4964385;28;20444;-80
2023/01/24 04:41:42;;;;;;;18.10;12.90;;;3.70;99.90;;;;;;4968785;28;20558;-80
2023/01/24 04:44:14;;;;;;;17.13;12.90;;;3.60;99.90;;;;;;4972090;28;20482;-79
2023/01/24 04:46:50;;;;;;;15.07;10.90;;;3.60;99.90;;;;;;4972403;29;20458;-80
2023/01/24 04:49:18;;;;;;;13.67;10.80;;;3.60;99.90;;;;;;4975510;29;20498;-80
2023/01/24 04:51:51;;;;;;;16.90;10.13;;;3.60;99.90;;;;;;4968693;28;20510;-80
2023/01/24 04:54:20;;;;;;;10.10;8.60;;;3.60;99.90;;;;;;4971637;29;20459;-80
2023/01/24 04:56:50;;;;;;;11.83;8.13;;;3.60;99.90;;;;;;4975876;28;20473;-80
2023/01/24 04:59:20;;;;;;;9.93;7.73;;;3.60;99.90;;;;;;4972317;29;20453;-80
2023/01/24 05:01:58;;;;;;;8.60;7.33;;;3.60;99.90;;;;;;4974806;28;21007;-82
2023/01/24 05:04:27;;;;;;;11.27;9.33;;;3.60;99.90;;;;;;4975301;28;20498;-81
2023/01/24 05:06:55;;;;;;;11.03;8.70;;;3.60;99.90;;;;;;4970136;29;20523;-80
2023/01/24 05:09:29;;;;;;;14.60;10.37;;;3.60;99.90;;;;;;4964113;29;20452;-80
2023/01/24 05:12:06;;;;;;;13.80;10.20;;;3.60;99.90;;;;;;4964729;28;20472;-79
2023/01/24 05:14:36;;;;;;;13.00;10.70;;;3.60;99.90;;;;;;4967328;29;20473;-80
2023/01/24 05:17:08;;;;;;;12.90;9.57;;;3.60;99.90;;;;;;4971065;29;21530;-79
2023/01/24 05:19:42;;;;;;;14.20;10.00;;;3.60;99.90;;;;;;4968677;29;21117;-81
2023/01/24 05:22:21;;;;;;;12.97;9.60;;;3.60;99.90;;;;;;4966371;28;20531;-80
2023/01/24 05:24:49;;;;;;;17.07;10.40;;;3.60;99.90;;;;;;4969306;28;20495;-83
2023/01/24 05:27:27;;;;;;;12.63;9.97;;;3.60;99.90;;;;;;4968695;29;20463;-81
2023/01/24 05:29:58;;;;;;;11.40;9.13;;;3.50;99.90;;;;;;4968281;29;20463;-81
2023/01/24 05:32:34;;;;;;;11.43;7.97;;;3.60;99.90;;;;;;4966023;28;20562;-82
2023/01/24 05:35:06;;;;;;;11.13;7.87;;;3.60;99.90;;;;;;4965803;29;21043;-78
2023/01/24 05:37:37;;;;;;;9.67;7.90;;;3.60;99.90;;;;;;4956238;29;20444;-81
2023/01/24 05:40:15;;;;;;;7.77;6.87;;;3.50;99.90;;;;;;4965351;28;20513;-80
2023/01/24 05:42:57;;;;;;;7.97;6.43;;;3.60;99.90;;;;;;4960870;28;20478;-81
2023/01/24 05:45:33;;;;;;;7.70;6.20;;;3.60;99.90;;;;;;4964348;28;20494;-80
2023/01/24 05:48:09;;;;;;;8.00;5.60;;;3.60;99.90;;;;;;4970347;28;20462;-80
2023/01/24 05:50:41;;;;;;;6.90;5.53;;;3.60;99.90;;;;;;4960805;29;20460;-80
2023/01/24 05:53:15;;;;;;;7.37;6.50;;;3.60;99.90;;;;;;4959778;28;20527;-81
2023/01/24 05:55:55;;;;;;;6.93;6.10;;;3.60;99.90;;;;;;4961939;29;22080;-81
2023/01/24 05:58:25;;;;;;;7.53;6.10;;;3.60;99.90;;;;;;4967692;28;20471;-80
2023/01/24 06:00:57;;;;;;;8.10;6.60;;;3.60;99.90;;;;;;4968428;28;20471;-79
2023/01/24 06:03:30;;;;;;;8.03;7.23;;;3.50;99.90;;;;;;4972810;28;20515;-80
2023/01/24 06:05:59;;;;;;;9.80;7.90;;;3.50;99.90;;;;;;4968976;29;20458;-79
2023/01/24 06:08:31;;;;;;;8.40;7.17;;;3.50;99.90;;;;;;4967871;28;20522;-81
2023/01/24 06:11:07;;;;;;;8.27;7.33;;;3.60;99.90;;;;;;4963184;28;20462;-81
2023/01/24 06:13:43;;;;;;;9.63;7.40;;;3.50;99.90;;;;;;4961814;28;20474;-80
2023/01/24 06:16:21;;;;;;;7.73;6.93;;;3.50;99.90;;;;;;4966116;28;20478;-81
2023/01/24 06:18:51;;;;;;;8.93;7.50;;;3.50;99.90;;;;;;4957871;28;20466;-79
2023/01/24 06:21:40;;;;;;;9.13;7.17;;;3.50;99.90;;;;;;4962044;28;20487;-80
2023/01/24 06:24:35;;;;;;;8.83;7.60;;;3.50;99.90;;;;;;4966673;28;20494;-81
2023/01/24 06:27:04;;;;;;;8.67;6.80;;;3.50;99.90;;;;;;4964151;28;20578;-81
2023/01/24 06:29:34;;;;;;;9.60;7.20;;;3.50;99.90;;;;;;4964394;28;20465;-85
2023/01/24 06:32:18;;;;;;;8.53;7.33;;;3.50;99.90;;;;;;4962790;28;20502;-81
2023/01/24 06:35:08;;;;;;;8.40;7.00;;;3.50;99.90;;;;;;4966313;28;20465;-82
2023/01/24 06:37:46;;;;;;;7.27;6.57;;;3.50;99.90;;;;;;4961944;28;20471;-82
2023/01/24 06:40:19;;;;;;;9.10;7.20;;;3.50;99.90;;;;;;4968604;28;20475;-84
2023/01/24 06:42:49;;;;;;;10.43;7.23;;;3.50;99.90;;;;;;4968886;28;20518;-83
2023/01/24 06:55:22;;;;;;;9.40;6.77;;;3.50;99.90;;;;;;4964870;28;20469;-86
2023/01/24 06:58:13;;;;;;;14.00;10.30;;;3.50;99.90;;;;;;4975053;28;20526;-87
2023/01/24 07:00:44;;;;;;;10.67;8.70;;;3.50;99.90;;;;;;4971049;28;20518;-86
2023/01/24 07:03:43;;;;;;;10.30;8.60;;;3.50;99.90;;;;;;4964353;28;20458;-92
2023/01/24 07:06:19;;;;;;;15.33;9.10;;;3.50;99.90;;;;;;4971837;28;20485;-88
2023/01/24 07:08:57;;;;;;;12.13;9.80;;;3.50;99.90;;;;;;4970379;28;20451;-89
2023/01/24 07:14:29;;;;;;;10.40;9.00;;;3.50;99.90;;;;;;4973995;28;20459;-88
2023/01/24 07:16:58;;;;;;;10.63;9.37;;;3.50;99.90;;;;;;4966728;28;20467;-89
2023/01/24 07:19:35;;;;;;;9.70;8.20;;;3.50;99.90;;;;;;4973377;28;20456;-90
2023/01/24 07:22:23;;;;;;;9.63;8.60;;;3.50;99.90;;;;;;4967720;28;20496;-90
2023/01/24 07:28:18;;;;;;;10.47;8.37;;;3.50;99.90;;;;;;4861241;29;20471;-89
2023/01/24 07:30:52;;;;;;;11.93;8.93;;;3.50;99.90;;;;;;4859267;29;20484;-89
2023/01/24 07:33:26;;;;;;;11.30;9.07;;;3.50;99.90;;;;;;4833952;29;20467;-89
2023/01/24 07:36:00;;;;;;;12.00;8.97;;;3.50;99.90;;;;;;4852607;29;20565;-90
2023/01/24 07:38:35;;;;;;;10.03;9.00;;;3.50;99.90;;;;;;4853951;29;20464;-88
2023/01/24 07:41:34;;;;;;;9.60;8.57;;;3.50;99.90;;;;;;4848575;29;20492;-89
2023/01/24 07:44:05;;;;;;;10.87;9.03;;;3.50;99.90;;;;;;4854893;29;20527;-90
2023/01/24 07:46:36;;;;;;;10.17;9.00;;;3.50;99.90;;;;;;4864737;29;20499;-89
2023/01/24 07:49:13;;;;;;;10.87;8.23;;;3.50;99.90;;;;;;4861394;29;20480;-83
2023/01/24 07:51:52;;;;;;;9.20;8.00;;;3.50;99.90;;;;;;4849845;29;20504;-85
2023/01/24 07:54:24;;;;;;;10.27;9.20;;;3.50;99.90;;;;;;4863421;29;20463;-87
2023/01/24 07:56:57;;;;;;;12.77;9.00;;;3.50;99.90;;;;;;4859339;29;20457;-86
2023/01/24 07:59:29;;;;;;;9.70;8.70;;;3.50;99.90;;;;;;4857382;29;20464;-86
2023/01/24 08:02:12;;;;;;;11.20;9.13;;;3.50;99.90;;;;;;4875432;29;20476;-84
2023/01/24 08:04:45;;;;;;;11.23;9.77;;;3.50;99.90;;;;;;4939579;28;20463;-86
2023/01/24 08:07:20;;;;;;;9.70;8.67;;;3.50;99.90;;;;;;4969803;28;20473;-86
2023/01/24 08:09:54;;;;;;;10.70;8.50;;;3.50;99.90;;;;;;4972244;28;20509;-87
2023/01/24 08:12:30;;;;;;;11.00;9.10;;;3.50;99.90;;;;;;4969347;28;20494;-86
2023/01/24 08:15:10;;;;;;;13.00;8.60;;;3.40;99.90;;;;;;4968854;28;20534;-87
2023/01/24 08:17:49;;;;;;;10.30;8.50;;;3.40;99.90;;;;;;4973787;28;20521;-87
2023/01/24 08:20:21;;;;;;;10.63;8.20;;;3.50;99.90;;;;;;4973774;28;20465;-88
2023/01/24 08:22:59;;;;;;;9.70;8.70;;;3.40;99.90;;;;;;4967107;28;20474;-89
2023/01/24 08:25:33;;;;;;;9.10;8.13;;;3.40;99.90;;;;;;4965423;28;20526;-85
2023/01/24 08:28:05;;;;;;;9.77;8.47;;;3.40;99.90;;;;;;4971570;28;20458;-86
2023/01/24 08:30:45;;;;;;;8.83;7.93;;;3.40;99.90;;;;;;4975518;28;20490;-86
2023/01/24 08:33:20;;;;;;;10.23;8.50;;;3.40;99.90;;;;;;4966723;28;20473;-87
2023/01/24 08:35:52;;;;;;;10.90;8.73;;;3.50;99.90;;;;;;4971578;28;20558;-87
2023/01/24 08:38:27;;;;;;;10.73;8.33;;;3.50;99.90;;;;;;4971099;28;20443;-87
2023/01/24 08:41:07;;;;;;;9.50;8.40;;;3.50;99.90;;;;;;4971780;28;20464;-87
2023/01/24 08:43:45;;;;;;;9.27;8.37;;;3.50;99.90;;;;;;4974132;28;20466;-88
2023/01/24 08:46:17;;;;;;;9.37;8.43;;;3.50;99.90;;;;;;4964622;28;20523;-87
2023/01/24 08:48:45;;;;;;;9.07;8.17;;;3.40;99.90;;;;;;4966844;28;20451;-86
2023/01/24 08:51:16;;;;;;;9.47;8.57;;;3.40;99.90;;;;;;4968137;28;20532;-85
2023/01/24 08:53:52;;;;;;;10.47;8.93;;;3.40;99.90;;;;;;4972513;28;20463;-86
2023/01/24 08:56:27;;;;;;;11.00;8.33;;;3.40;99.90;;;;;;4976429;28;20471;-86
2023/01/24 08:59:06;;;;;;;11.33;9.97;;;3.40;99.90;;;;;;4971962;28;20467;-87
2023/01/24 09:01:37;;;;;;;9.93;7.87;;;3.40;99.90;;;;;;4972959;28;20478;-87
2023/01/24 09:04:09;;;;;;;10.63;9.10;;;3.40;99.90;;;;;;4973056;28;20482;-87
2023/01/24 09:06:49;;;;;;;10.70;9.40;;;3.40;99.90;;;;;;4974237;28;20472;-87
2023/01/24 09:09:24;;;;;;;10.37;8.73;;;3.40;99.90;;;;;;4970387;28;20446;-86
2023/01/24 09:11:53;;;;;;;15.03;9.17;;;3.40;99.90;;;;;;4975428;28;20563;-87
2023/01/24 09:14:27;;;;;;;11.37;9.07;;;3.40;99.90;;;;;;4970541;28;20455;-87
2023/01/24 09:16:57;;;;;;;11.40;10.17;;;3.40;99.90;;;;;;4973681;28;20477;-87
2023/01/24 09:19:26;;;;;;;10.20;8.80;;;3.40;99.90;;;;;;4971934;28;21491;-87
2023/01/24 09:21:58;;;;;;;11.50;8.70;;;3.40;99.90;;;;;;4974766;28;20475;-88
2023/01/24 09:24:28;;;;;;;9.40;8.50;;;3.40;99.90;;;;;;4973355;28;20463;-86
2023/01/24 09:27:05;;;;;;;9.80;8.50;;;3.40;99.90;;;;;;4977673;28;20471;-87
2023/01/24 09:29:39;;;;;;;11.50;9.10;;;3.40;99.90;;;;;;4974839;28;20465;-88
2023/01/24 09:32:20;;;;;;;9.00;8.10;;;3.40;99.90;;;;;;4972751;28;20502;-89
2023/01/24 09:34:51;;;;;;;11.13;8.90;;;3.40;99.90;;;;;;4967790;28;20493;-87
2023/01/24 09:37:23;;;;;;;8.93;7.67;;;3.50;99.90;;;;;;4967006;28;20462;-86
2023/01/24 09:39:59;;;;;;;9.40;8.40;;;3.50;99.90;;;;;;4975783;28;20440;-88
2023/01/24 09:42:45;;;;;;;11.00;9.37;;;3.50;99.90;;;;;;4975220;28;20546;-87
2023/01/24 09:45:23;;;;;;;10.30;9.23;;;3.50;99.90;;;;;;4973821;28;20472;-87
2023/01/24 09:48:03;;;;;;;11.00;8.90;;;3.50;99.90;;;;;;4968320;28;20478;-88
2023/01/24 09:50:39;;;;;;;9.70;8.40;;;3.50;99.90;;;;;;4973726;28;20485;-86
2023/01/24 09:53:21;;;;;;;11.77;8.57;;;3.50;99.90;;;;;;4968768;28;20471;-85
2023/01/24 09:55:52;;;;;;;8.77;7.97;;;3.50;99.90;;;;;;4969255;28;20478;-88
2023/01/24 09:58:35;;;;;;;9.80;8.80;;;3.50;99.90;;;;;;4967412;28;20479;-85
2023/01/24 10:01:11;;;;;;;10.97;8.97;;;3.50;99.90;;;;;;4968592;28;20472;-87
2023/01/24 10:03:46;;;;;;;10.40;9.30;;;3.50;99.90;;;;;;4971041;28;20450;-87
2023/01/24 10:06:21;;;;;;;10.20;8.87;;;3.50;99.90;;;;;;4971327;28;20446;-87
2023/01/24 10:09:01;;;;;;;9.00;8.20;;;3.50;99.90;;;;;;4978726;28;20487;-87
2023/01/24 10:11:48;;;;;;;9.00;7.93;;;3.50;99.90;;;;;;4971827;28;20474;-87
2023/01/24 10:14:42;;;;;;;10.73;8.83;;;3.50;99.90;;;;;;4966872;23;21038;-79
2023/01/24 10:17:40;;;;;;;10.87;8.57;;;3.50;99.90;;;;;;4952743;29;20467;-78
2023/01/24 10:20:37;;;;;;;11.00;9.00;;;3.50;99.90;;;;;;4938269;29;20475;-78
2023/01/24 10:23:12;;;;;;;10.43;8.33;;;3.50;99.90;;;;;;4950982;28;20485;-78
2023/01/24 10:26:02;;;;;;;9.93;8.90;;;3.50;99.90;;;;;;4928806;29;20487;-79
2023/01/24 10:28:44;;;;;;;12.53;9.40;;;3.50;99.90;;;;;;4922027;29;21034;-79
2023/01/24 10:31:17;;;;;;;9.30;8.30;;;3.50;99.90;;;;;;4920235;29;20471;-80
2023/01/24 10:33:52;;;;;;;11.37;9.20;;;3.50;99.90;;;;;;4928946;29;20492;-81
2023/01/24 10:36:32;;;;;;;8.57;7.77;;;3.50;99.90;;;;;;4932618;29;20511;-80
2023/01/24 10:39:10;;;;;;;9.40;8.40;;;3.50;99.90;;;;;;4930210;29;20464;-79
2023/01/24 10:41:46;;;;;;;10.20;8.67;;;3.50;99.90;;;;;;4935374;29;20487;-80
2023/01/24 10:44:16;;;;;;;8.10;7.40;;;3.60;99.90;;;;;;4927297;29;20497;-80
2023/01/24 10:47:03;;;;;;;10.13;9.03;;;3.60;99.90;;;;;;4941116;29;20471;-80
2023/01/24 10:49:40;;;;;;;11.23;9.20;;;3.60;99.90;;;;;;4925501;29;20470;-79
2023/01/24 10:52:13;;;;;;;11.23;9.00;;;3.60;99.90;;;;;;4944095;29;20480;-78
2023/01/24 10:54:46;;;;;;;12.57;8.43;;;3.60;99.90;;;;;;4931495;29;20487;-78
2023/01/24 10:57:31;;;;;;;10.90;8.70;;;3.60;99.90;;;;;;4929646;29;20990;-79
2023/01/24 11:00:05;;;;;;;11.13;9.23;;;3.50;99.90;;;;;;4929600;29;20474;-79
2023/01/24 11:02:34;;;;;;;10.00;8.77;;;3.50;99.90;;;;;;4926495;29;20519;-80
2023/01/24 11:05:09;;;;;;;11.13;9.13;;;3.50;99.90;;;;;;4932727;29;21007;-80
2023/01/24 11:07:44;;;;;;;12.40;9.27;;;3.50;99.90;;;;;;4926143;29;20490;-79
2023/01/24 11:10:22;;;;;;;9.00;8.10;;;3.50;99.90;;;;;;4933797;29;21073;-79
2023/01/24 11:12:53;;;;;;;9.90;8.30;;;3.60;99.90;;;;;;4933056;29;20939;-81
2023/01/24 11:15:37;;;;;;;9.53;8.50;;;3.60;99.90;;;;;;4922684;29;20487;-80
2023/01/24 11:18:12;;;;;;;10.10;8.97;;;3.60;99.90;;;;;;4937793;29;20464;-80
2023/01/24 11:20:44;;;;;;;10.30;9.20;;;3.60;99.90;;;;;;4924134;29;20472;-79
2023/01/24 11:23:20;;;;;;;10.50;8.77;;;3.60;99.90;;;;;;4935753;29;20494;-82
2023/01/24 11:26:02;;;;;;;10.33;9.10;;;3.60;99.90;;;;;;4923399;29;21338;-79
2023/01/24 11:28:34;;;;;;;10.90;9.30;;;3.60;99.90;;;;;;4935454;29;20567;-80
2023/01/24 11:31:16;;;;;;;12.30;8.90;;;3.60;99.90;;;;;;4927812;29;21036;-79
2023/01/24 11:34:11;;;;;;;13.73;10.17;;;3.60;99.90;;;;;;4923346;29;20514;-80
2023/01/24 11:36:48;;;;;;;10.57;9.17;;;3.60;99.90;;;;;;4929614;29;20531;-81
2023/01/24 11:39:38;;;;;;;11.93;9.93;;;3.60;99.90;;;;;;4933292;29;20503;-81
2023/01/24 11:42:16;;;;;;;10.43;9.43;;;3.60;99.90;;;;;;4926094;29;20483;-81
2023/01/24 11:45:19;;;;;;;13.60;10.73;;;3.60;99.90;;;;;;4930040;29;20491;-81
2023/01/24 11:47:57;;;;;;;14.73;9.77;;;3.60;99.90;;;;;;4932445;29;20492;-80
2023/01/24 11:50:54;;;;;;;9.93;8.90;;;3.60;99.90;;;;;;4927422;28;20468;-78
2023/01/24 11:54:05;;;;;;;12.00;10.07;;;3.60;99.90;;;;;;4946441;29;20494;-79
2023/01/24 11:56:42;;;;;;;10.43;9.40;;;3.60;99.90;;;;;;4932325;29;20479;-79
2023/01/24 11:59:42;;;;;;;10.70;9.10;;;3.60;99.90;;;;;;4933826;29;20471;-78
2023/01/24 12:02:28;;;;;;;11.53;9.70;;;3.60;99.90;;;;;;4930406;29;20495;-79
2023/01/24 12:05:28;;;;;;;10.43;9.03;;;3.60;99.90;;;;;;4927081;29;21267;-79
2023/01/24 12:08:14;;;;;;;10.13;9.20;;;3.60;99.90;;;;;;4925470;29;20495;-82
2023/01/24 12:10:56;;;;;;;13.10;10.73;;;3.60;99.90;;;;;;4927468;29;20913;-79
2023/01/24 12:13:51;;;;;;;10.70;9.50;;;3.60;99.90;;;;;;4930617;29;20864;-79
2023/01/24 12:16:42;;;;;;;11.57;10.30;;;3.60;99.90;;;;;;4924307;29;20483;-79
2023/01/24 12:19:46;;;;;;;12.20;10.80;;;3.60;99.90;;;;;;4944293;29;20476;-78
2023/01/24 12:22:19;;;;;;;11.60;10.40;;;3.60;99.90;;;;;;4926419;29;20491;-79
2023/01/24 12:24:53;;;;;;;11.17;9.90;;;3.60;99.90;;;;;;4919092;29;20498;-80
2023/01/24 12:27:33;;;;;;;11.83;10.10;;;3.60;99.90;;;;;;4933338;29;20479;-79
2023/01/24 12:30:14;;;;;;;11.83;10.60;;;3.60;99.90;;;;;;4919233;29;20495;-79
2023/01/24 12:32:50;;;;;;;12.50;9.67;;;3.60;99.90;;;;;;4923839;29;20492;-79
2023/01/24 12:35:27;;;;;;;10.73;9.53;;;3.50;99.90;;;;;;4929124;29;20472;-79
2023/01/24 12:38:03;;;;;;;10.63;9.57;;;3.60;99.90;;;;;;4930634;29;20987;-78
2023/01/24 12:40:46;;;;;;;11.30;9.63;;;3.60;99.90;;;;;;4934204;29;20523;-78
2023/01/24 12:43:27;;;;;;;12.73;10.20;;;3.50;99.90;;;;;;4929891;29;21161;-79
2023/01/24 12:46:09;;;;;;;13.00;11.00;;;3.50;99.90;;;;;;4936067;29;20475;-80
2023/01/24 12:48:47;;;;;;;11.17;10.03;;;3.50;99.90;;;;;;4932456;29;20606;-79
2023/01/24 12:51:26;;;;;;;13.40;11.00;;;3.50;99.90;;;;;;4924072;29;20482;-78
2023/01/24 12:54:05;;;;;;;15.93;10.27;;;3.50;99.90;;;;;;4940955;29;20498;-79
2023/01/24 12:56:45;;;;;;;12.77;10.53;;;3.50;99.90;;;;;;4938245;29;20971;-77
2023/01/24 12:59:22;;;;;;;12.07;10.57;;;3.50;99.90;;;;;;4922405;29;20471;-80
2023/01/24 13:02:31;;;;;;;12.43;10.80;;;3.40;99.90;;;;;;4924622;29;20511;-81
2023/01/24 13:05:15;;;;;;;13.50;9.80;;;3.40;99.90;;;;;;4931777;29;20503;-80
2023/01/24 13:07:55;;;;;;;14.50;10.60;;;3.40;99.90;;;;;;4926838;29;20488;-80
2023/01/24 13:10:33;;;;;;;10.27;9.27;;;3.40;99.90;;;;;;4932937;29;20518;-80
2023/01/24 13:13:05;;;;;;;11.97;10.40;;;3.50;99.90;;;;;;4927499;29;21007;-80
2023/01/24 13:15:53;;;;;;;12.03;10.07;;;3.50;99.90;;;;;;4922838;29;20888;-79
2023/01/24 13:18:45;;;;;;;12.10;9.97;;;3.40;99.90;;;;;;4935875;29;20471;-82
2023/01/24 13:21:20;;;;;;;11.73;10.47;;;3.40;99.90;;;;;;4930468;29;20478;-80
2023/01/24 13:24:16;;;;;;;11.80;9.87;;;3.40;99.90;;;;;;4921586;29;20503;-77
2023/01/24 13:27:04;;;;;;;11.60;10.40;;;3.40;99.90;;;;;;4936011;29;20483;-80
2023/01/24 13:29:44;;;;;;;12.93;10.63;;;3.40;99.90;;;;;;4939831;28;20492;-79
2023/01/24 13:32:16;;;;;;;11.43;10.20;;;3.40;99.90;;;;;;4928219;29;20623;-80
2023/01/24 13:34:57;;;;;;;12.27;9.50;;;3.40;99.90;;;;;;4909607;29;20495;-80
2023/01/24 13:37:28;;;;;;;12.03;10.00;;;3.40;99.90;;;;;;4934863;29;20475;-80
2023/01/24 13:40:04;;;;;;;12.23;9.67;;;3.40;99.90;;;;;;4915420;29;20918;-80
2023/01/24 13:42:42;;;;;;;12.17;9.53;;;3.40;99.90;;;;;;4917905;29;21028;-80
2023/01/24 13:45:58;;;;;;;13.10;10.80;;;3.40;99.90;;;;;;4929739;29;20492;-78
2023/01/24 13:48:57;;;;;;;11.00;9.70;;;3.40;99.90;;;;;;4927962;29;20480;-80
2023/01/24 13:51:51;;;;;;;13.53;10.50;;;3.40;99.90;;;;;;4937581;28;20700;-79
2023/01/24 13:54:38;;;;;;;14.70;10.43;;;3.40;99.90;;;;;;4927697;29;22552;-80
2023/01/24 13:57:28;;;;;;;11.57;9.57;;;3.40;99.90;;;;;;4921411;29;20480;-78
2023/01/24 14:00:17;;;;;;;11.47;10.00;;;3.40;99.90;;;;;;4927691;29;20466;-78
2023/01/24 14:03:05;;;;;;;12.30;10.93;;;3.40;99.90;;;;;;4932099;29;20872;-79
2023/01/24 14:05:48;;;;;;;11.17;9.80;;;3.50;99.90;;;;;;4926650;29;20472;-78
2023/01/24 14:08:42;;;;;;;13.23;10.83;;;3.50;99.90;;;;;;4926255;29;20468;-79
2023/01/24 14:11:27;;;;;;;12.77;10.50;;;3.40;99.90;;;;;;4930623;29;20510;-79
2023/01/24 14:14:02;;;;;;;15.40;10.70;;;3.40;99.90;;;;;;4923859;29;21046;-80
2023/01/24 14:17:25;;;;;;;16.23;10.77;;;3.40;99.90;;;;;;4927185;29;20569;-79
2023/01/24 14:19:58;;;;;;;14.07;10.97;;;3.40;99.90;;;;;;4922441;29;20461;-79
2023/01/24 14:22:52;;;;;;;13.97;10.40;;;3.40;99.90;;;;;;4928434;29;20557;-80
2023/01/24 14:25:46;;;;;;;11.93;9.90;;;3.30;99.90;;;;;;4918424;29;20844;-78
2023/01/24 14:28:22;;;;;;;13.53;10.70;;;3.30;99.90;;;;;;4932919;29;20545;-79